Terminal Aerodrome Forecast
Issued by NWS

Home | Current Version | Previous Version | Text Only | Print | Product List | Glossary On
Versions: 1 2 3 4 5 6 7 8 9 10 11 12 13 14 15 16 17 18 19 20 21 22 23 24 25 26 27 28 29 30 31
000
FTUS43 KMKX 180019 AAA
TAFENW
TAF AMD
KENW 180019Z 1800/1824 18012KT 4SM BR VCSH SCT009 OVC015
     FM180400 21009KT 5SM BR VCSH OVC008
     FM180600 28004KT 3SM BR VCSH OVC008
     FM181200 01010KT 2SM RA OVC008
     FM181800 35018G30KT P6SM OVC008
     FM182100 33016G29KT P6SM OVC035=

USA.gov is the U.S. government's official web portal to all federal, state and local government web resources and services.